sensor_id;sensor_type;location;lat;lon;timestamp;temperature;humidity
64858;SHT30;51335;51.148;6.950;2023-12-20T00:00:08;7.82;99.99
64858;SHT30;51335;51.148;6.950;2023-12-20T00:00:39;7.84;99.99
64858;SHT30;51335;51.148;6.950;2023-12-20T00:01:09;7.86;99.99
64858;SHT30;51335;51.148;6.950;2023-12-20T00:01:39;7.91;99.99
64858;SHT30;51335;51.148;6.950;2023-12-20T00:02:09;7.91;99.99
64858;SHT30;51335;51.148;6.950;2023-12-20T00:02:40;7.94;99.99
64858;SHT30;51335;51.148;6.950;2023-12-20T00:03:10;7.95;99.99
64858;SHT30;51335;51.148;6.950;2023-12-20T00:03:40;7.89;99.99
64858;SHT30;51335;51.148;6.950;2023-12-20T00:04:10;7.89;99.99
64858;SHT30;51335;51.148;6.950;2023-12-20T00:04:41;7.89;99.99
64858;SHT30;51335;51.148;6.950;2023-12-20T00:05:11;7.86;99.99
64858;SHT30;51335;51.148;6.950;2023-12-20T00:05:41;7.75;99.99
64858;SHT30;51335;51.148;6.950;2023-12-20T00:06:12;7.70;99.99
64858;SHT30;51335;51.148;6.950;2023-12-20T00:06:42;7.64;99.99
64858;SHT30;51335;51.148;6.950;2023-12-20T00:07:12;7.60;99.99
64858;SHT30;51335;51.148;6.950;2023-12-20T00:07:42;7.58;99.99
64858;SHT30;51335;51.148;6.950;2023-12-20T00:08:13;7.60;99.99
64858;SHT30;51335;51.148;6.950;2023-12-20T00:08:43;7.58;99.99
64858;SHT30;51335;51.148;6.950;2023-12-20T00:09:13;7.60;99.99
64858;SHT30;51335;51.148;6.950;2023-12-20T00:09:44;7.58;99.99
64858;SHT30;51335;51.148;6.950;2023-12-20T00:10:14;7.53;99.99
64858;SHT30;51335;51.148;6.950;2023-12-20T00:10:44;7.54;99.99
64858;SHT30;51335;51.148;6.950;2023-12-20T00:11:15;7.53;99.99
64858;SHT30;51335;51.148;6.950;2023-12-20T00:11:45;7.53;99.99
64858;SHT30;51335;51.148;6.950;2023-12-20T00:12:15;7.48;99.99
64858;SHT30;51335;51.148;6.950;2023-12-20T00:12:46;7.47;99.99
64858;SHT30;51335;51.148;6.950;2023-12-20T00:13:16;7.44;99.99
64858;SHT30;51335;51.148;6.950;2023-12-20T00:13:46;7.47;99.99
64858;SHT30;51335;51.148;6.950;2023-12-20T00:14:16;7.44;99.99
64858;SHT30;51335;51.148;6.950;2023-12-20T00:14:47;7.44;99.99
64858;SHT30;51335;51.148;6.950;2023-12-20T00:15:17;7.48;99.99
64858;SHT30;51335;51.148;6.950;2023-12-20T00:15:47;7.47;99.99
64858;SHT30;51335;51.148;6.950;2023-12-20T00:16:17;7.38;99.99
64858;SHT30;51335;51.148;6.950;2023-12-20T00:16:48;7.38;99.99
64858;SHT30;51335;51.148;6.950;2023-12-20T00:17:18;7.46;99.99
64858;SHT30;51335;51.148;6.950;2023-12-20T00:17:48;7.37;99.99
64858;SHT30;51335;51.148;6.950;2023-12-20T00:18:18;7.37;99.99
64858;SHT30;51335;51.148;6.950;2023-12-20T00:18:49;7.34;99.99
64858;SHT30;51335;51.148;6.950;2023-12-20T00:19:19;7.34;99.99
64858;SHT30;51335;51.148;6.950;2023-12-20T00:19:49;7.34;99.99
64858;SHT30;51335;51.148;6.950;2023-12-20T00:20:19;7.33;99.99
64858;SHT30;51335;51.148;6.950;2023-12-20T00:20:50;7.33;99.99
64858;SHT30;51335;51.148;6.950;2023-12-20T00:21:20;7.36;99.99
64858;SHT30;51335;51.148;6.950;2023-12-20T00:21:50;7.34;99.99
64858;SHT30;51335;51.148;6.950;2023-12-20T00:22:20;7.33;99.99
64858;SHT30;51335;51.148;6.950;2023-12-20T00:22:51;7.33;99.99
64858;SHT30;51335;51.148;6.950;2023-12-20T00:23:21;7.36;99.99
64858;SHT30;51335;51.148;6.950;2023-12-20T00:23:51;7.34;99.99
64858;SHT30;51335;51.148;6.950;2023-12-20T00:24:22;7.33;99.99
64858;SHT30;51335;51.148;6.950;2023-12-20T00:24:52;7.28;99.99
64858;SHT30;51335;51.148;6.950;2023-12-20T00:25:22;7.30;99.99
64858;SHT30;51335;51.148;6.950;2023-12-20T00:25:52;7.27;99.99
64858;SHT30;51335;51.148;6.950;2023-12-20T00:26:23;7.26;99.99
64858;SHT30;51335;51.148;6.950;2023-12-20T00:26:53;7.23;99.99
64858;SHT30;51335;51.148;6.950;2023-12-20T00:27:23;7.24;99.99
64858;SHT30;51335;51.148;6.950;2023-12-20T00:27:53;7.24;99.99
64858;SHT30;51335;51.148;6.950;2023-12-20T00:28:24;7.23;99.99
64858;SHT30;51335;51.148;6.950;2023-12-20T00:28:54;7.22;99.99
64858;SHT30;51335;51.148;6.950;2023-12-20T00:29:24;7.20;99.99
64858;SHT30;51335;51.148;6.950;2023-12-20T00:29:54;7.20;99.99
64858;SHT30;51335;51.148;6.950;2023-12-20T00:30:25;7.22;99.99
64858;SHT30;51335;51.148;6.950;2023-12-20T00:30:55;7.23;99.99
64858;SHT30;51335;51.148;6.950;2023-12-20T00:31:25;7.20;99.99
64858;SHT30;51335;51.148;6.950;2023-12-20T00:31:55;7.22;99.99
64858;SHT30;51335;51.148;6.950;2023-12-20T00:32:26;7.20;99.99
64858;SHT30;51335;51.148;6.950;2023-12-20T00:32:56;7.20;99.99
64858;SHT30;51335;51.148;6.950;2023-12-20T00:33:26;7.20;99.99
64858;SHT30;51335;51.148;6.950;2023-12-20T00:33:56;7.19;99.99
64858;SHT30;51335;51.148;6.950;2023-12-20T00:34:27;7.19;99.99
64858;SHT30;51335;51.148;6.950;2023-12-20T00:34:57;7.22;99.99
64858;SHT30;51335;51.148;6.950;2023-12-20T00:35:27;7.20;99.99
64858;SHT30;51335;51.148;6.950;2023-12-20T00:35:58;7.20;99.99
64858;SHT30;51335;51.148;6.950;2023-12-20T00:36:28;7.19;99.99
64858;SHT30;51335;51.148;6.950;2023-12-20T00:36:58;7.19;99.99
64858;SHT30;51335;51.148;6.950;2023-12-20T00:37:28;7.16;99.99
64858;SHT30;51335;51.148;6.950;2023-12-20T00:37:59;7.20;99.99
64858;SHT30;51335;51.148;6.950;2023-12-20T00:38:29;7.20;99.99
64858;SHT30;51335;51.148;6.950;2023-12-20T00:38:59;7.17;99.99
64858;SHT30;51335;51.148;6.950;2023-12-20T00:39:29;7.17;99.99
64858;SHT30;51335;51.148;6.950;2023-12-20T00:40:00;7.20;99.99
64858;SHT30;51335;51.148;6.950;2023-12-20T00:40:30;7.23;99.99
64858;SHT30;51335;51.148;6.950;2023-12-20T00:41:00;7.28;99.99
64858;SHT30;51335;51.148;6.950;2023-12-20T00:41:30;7.27;99.99
64858;SHT30;51335;51.148;6.950;2023-12-20T00:42:01;7.28;99.99
64858;SHT30;51335;51.148;6.950;2023-12-20T00:42:32;7.31;99.99
64858;SHT30;51335;51.148;6.950;2023-12-20T00:43:02;7.31;99.99
64858;SHT30;51335;51.148;6.950;2023-12-20T00:43:32;7.27;99.99
64858;SHT30;51335;51.148;6.950;2023-12-20T00:44:03;7.27;99.99
64858;SHT30;51335;51.148;6.950;2023-12-20T00:44:33;7.28;99.99
64858;SHT30;51335;51.148;6.950;2023-12-20T00:45:04;7.26;99.99
64858;SHT30;51335;51.148;6.950;2023-12-20T00:45:34;7.23;99.99
64858;SHT30;51335;51.148;6.950;2023-12-20T00:46:04;7.20;99.99
64858;SHT30;51335;51.148;6.950;2023-12-20T00:46:34;7.24;99.99
64858;SHT30;51335;51.148;6.950;2023-12-20T00:47:05;7.28;99.99
64858;SHT30;51335;51.148;6.950;2023-12-20T00:47:35;7.27;99.99
64858;SHT30;51335;51.148;6.950;2023-12-20T00:48:05;7.28;99.99
64858;SHT30;51335;51.148;6.950;2023-12-20T00:48:36;7.27;99.99
64858;SHT30;51335;51.148;6.950;2023-12-20T00:49:06;7.24;99.99
64858;SHT30;51335;51.148;6.950;2023-12-20T00:49:36;7.27;99.99
64858;SHT30;51335;51.148;6.950;2023-12-20T00:50:07;7.22;99.99
64858;SHT30;51335;51.148;6.950;2023-12-20T00:50:37;7.23;99.99
64858;SHT30;51335;51.148;6.950;2023-12-20T00:51:08;7.23;99.99
64858;SHT30;51335;51.148;6.950;2023-12-20T00:51:38;7.26;99.99
64858;SHT30;51335;51.148;6.950;2023-12-20T00:52:08;7.24;99.99
64858;SHT30;51335;51.148;6.950;2023-12-20T00:52:38;7.26;99.99
64858;SHT30;51335;51.148;6.950;2023-12-20T00:53:09;7.22;99.99
64858;SHT30;51335;51.148;6.950;2023-12-20T00:53:39;7.22;99.99
64858;SHT30;51335;51.148;6.950;2023-12-20T00:54:09;7.22;99.99
64858;SHT30;51335;51.148;6.950;2023-12-20T00:54:39;7.22;99.99
64858;SHT30;51335;51.148;6.950;2023-12-20T00:55:10;7.22;99.99
64858;SHT30;51335;51.148;6.950;2023-12-20T00:55:40;7.20;99.99
64858;SHT30;51335;51.148;6.950;2023-12-20T00:56:10;7.20;99.99
64858;SHT30;51335;51.148;6.950;2023-12-20T00:56:40;7.23;99.99
64858;SHT30;51335;51.148;6.950;2023-12-20T00:57:11;7.22;99.99
64858;SHT30;51335;51.148;6.950;2023-12-20T00:57:41;7.20;99.99
64858;SHT30;51335;51.148;6.950;2023-12-20T00:58:11;7.19;99.99
64858;SHT30;51335;51.148;6.950;2023-12-20T00:58:41;7.19;99.99
64858;SHT30;51335;51.148;6.950;2023-12-20T00:59:12;7.19;99.99
64858;SHT30;51335;51.148;6.950;2023-12-20T00:59:42;7.16;99.99
64858;SHT30;51335;51.148;6.950;2023-12-20T01:00:13;7.13;99.99
64858;SHT30;51335;51.148;6.950;2023-12-20T01:00:43;7.13;99.99
64858;SHT30;51335;51.148;6.950;2023-12-20T01:01:13;7.12;99.99
64858;SHT30;51335;51.148;6.950;2023-12-20T01:01:44;7.10;99.99
64858;SHT30;51335;51.148;6.950;2023-12-20T01:02:14;7.07;99.99
64858;SHT30;51335;51.148;6.950;2023-12-20T01:02:44;7.06;99.99
64858;SHT30;51335;51.148;6.950;2023-12-20T01:03:14;7.06;99.99
64858;SHT30;51335;51.148;6.950;2023-12-20T01:03:45;7.03;99.99
64858;SHT30;51335;51.148;6.950;2023-12-20T01:04:15;7.03;99.99
64858;SHT30;51335;51.148;6.950;2023-12-20T01:04:45;7.06;99.99
64858;SHT30;51335;51.148;6.950;2023-12-20T01:05:16;7.07;99.99
64858;SHT30;51335;51.148;6.950;2023-12-20T01:05:46;7.07;99.99
64858;SHT30;51335;51.148;6.950;2023-12-20T01:06:16;7.09;99.99
64858;SHT30;51335;51.148;6.950;2023-12-20T01:06:46;7.07;99.99
64858;SHT30;51335;51.148;6.950;2023-12-20T01:07:17;7.10;99.99
64858;SHT30;51335;51.148;6.950;2023-12-20T01:07:47;7.09;99.99
64858;SHT30;51335;51.148;6.950;2023-12-20T01:08:17;7.07;99.99
64858;SHT30;51335;51.148;6.950;2023-12-20T01:08:47;7.05;99.99
64858;SHT30;51335;51.148;6.950;2023-12-20T01:09:18;7.06;99.99
64858;SHT30;51335;51.148;6.950;2023-12-20T01:09:48;7.03;99.99
64858;SHT30;51335;51.148;6.950;2023-12-20T01:10:18;7.07;99.99
64858;SHT30;51335;51.148;6.950;2023-12-20T01:10:49;7.06;99.99
64858;SHT30;51335;51.148;6.950;2023-12-20T01:11:19;7.07;99.99
64858;SHT30;51335;51.148;6.950;2023-12-20T01:11:49;7.15;99.99
64858;SHT30;51335;51.148;6.950;2023-12-20T01:12:19;7.13;99.99
64858;SHT30;51335;51.148;6.950;2023-12-20T01:12:50;7.12;99.99
64858;SHT30;51335;51.148;6.950;2023-12-20T01:13:20;7.12;99.99
64858;SHT30;51335;51.148;6.950;2023-12-20T01:13:50;7.13;99.99
64858;SHT30;51335;51.148;6.950;2023-12-20T01:14:20;7.10;99.99
64858;SHT30;51335;51.148;6.950;2023-12-20T01:14:51;7.13;99.99
64858;SHT30;51335;51.148;6.950;2023-12-20T01:15:21;7.13;99.99
64858;SHT30;51335;51.148;6.950;2023-12-20T01:15:51;7.15;99.99
64858;SHT30;51335;51.148;6.950;2023-12-20T01:16:21;7.17;99.99
64858;SHT30;51335;51.148;6.950;2023-12-20T01:16:52;7.16;99.99
64858;SHT30;51335;51.148;6.950;2023-12-20T01:17:22;7.13;99.99
64858;SHT30;51335;51.148;6.950;2023-12-20T01:17:52;7.16;99.99
64858;SHT30;51335;51.148;6.950;2023-12-20T01:18:22;7.12;99.99
64858;SHT30;51335;51.148;6.950;2023-12-20T01:18:53;7.12;99.99
64858;SHT30;51335;51.148;6.950;2023-12-20T01:19:24;7.15;99.99
64858;SHT30;51335;51.148;6.950;2023-12-20T01:19:55;7.16;99.99
64858;SHT30;51335;51.148;6.950;2023-12-20T01:20:25;7.16;99.99
64858;SHT30;51335;51.148;6.950;2023-12-20T01:20:55;7.15;99.99
64858;SHT30;51335;51.148;6.950;2023-12-20T01:21:26;7.15;99.99
64858;SHT30;51335;51.148;6.950;2023-12-20T01:21:56;7.17;99.99
64858;SHT30;51335;51.148;6.950;2023-12-20T01:22:26;7.19;99.99
64858;SHT30;51335;51.148;6.950;2023-12-20T01:22:56;7.20;99.99
64858;SHT30;51335;51.148;6.950;2023-12-20T01:23:27;7.17;99.99
64858;SHT30;51335;51.148;6.950;2023-12-20T01:23:57;7.19;99.99
64858;SHT30;51335;51.148;6.950;2023-12-20T01:24:27;7.17;99.99
64858;SHT30;51335;51.148;6.950;2023-12-20T01:24:57;7.15;99.99
64858;SHT30;51335;51.148;6.950;2023-12-20T01:25:28;7.16;99.99
64858;SHT30;51335;51.148;6.950;2023-12-20T01:25:58;7.16;99.99
64858;SHT30;51335;51.148;6.950;2023-12-20T01:26:29;7.19;99.99
64858;SHT30;51335;51.148;6.950;2023-12-20T01:26:59;7.17;99.99
64858;SHT30;51335;51.148;6.950;2023-12-20T01:27:29;7.19;99.99
64858;SHT30;51335;51.148;6.950;2023-12-20T01:27:59;7.23;99.99
64858;SHT30;51335;51.148;6.950;2023-12-20T01:28:30;7.20;99.99
64858;SHT30;51335;51.148;6.950;2023-12-20T01:29:00;7.22;99.99
64858;SHT30;51335;51.148;6.950;2023-12-20T01:29:30;7.23;99.99
64858;SHT30;51335;51.148;6.950;2023-12-20T01:30:00;7.23;99.99
64858;SHT30;51335;51.148;6.950;2023-12-20T01:30:31;7.27;99.99
64858;SHT30;51335;51.148;6.950;2023-12-20T01:31:01;7.27;99.99
64858;SHT30;51335;51.148;6.950;2023-12-20T01:31:31;7.27;99.99
64858;SHT30;51335;51.148;6.950;2023-12-20T01:32:01;7.24;99.99
64858;SHT30;51335;51.148;6.950;2023-12-20T01:32:32;7.26;99.99
64858;SHT30;51335;51.148;6.950;2023-12-20T01:33:02;7.27;99.99
64858;SHT30;51335;51.148;6.950;2023-12-20T01:33:32;7.27;99.99
64858;SHT30;51335;51.148;6.950;2023-12-20T01:34:03;7.24;99.99
64858;SHT30;51335;51.148;6.950;2023-12-20T01:34:33;7.27;99.99
64858;SHT30;51335;51.148;6.950;2023-12-20T01:35:04;7.26;99.99
64858;SHT30;51335;51.148;6.950;2023-12-20T01:35:34;7.22;99.99
64858;SHT30;51335;51.148;6.950;2023-12-20T01:36:04;7.22;99.99
64858;SHT30;51335;51.148;6.950;2023-12-20T01:36:35;7.26;99.99
64858;SHT30;51335;51.148;6.950;2023-12-20T01:37:05;7.26;99.99
64858;SHT30;51335;51.148;6.950;2023-12-20T01:37:35;7.23;99.99
64858;SHT30;51335;51.148;6.950;2023-12-20T01:38:05;7.28;99.99
64858;SHT30;51335;51.148;6.950;2023-12-20T01:38:36;7.24;99.99
64858;SHT30;51335;51.148;6.950;2023-12-20T01:39:06;7.22;99.99
64858;SHT30;51335;51.148;6.950;2023-12-20T01:39:36;7.19;99.99
64858;SHT30;51335;51.148;6.950;2023-12-20T01:40:07;7.19;99.99
64858;SHT30;51335;51.148;6.950;2023-12-20T01:40:37;7.19;99.99
64858;SHT30;51335;51.148;6.950;2023-12-20T01:41:07;7.20;99.99
64858;SHT30;51335;51.148;6.950;2023-12-20T01:41:37;7.16;99.99
64858;SHT30;51335;51.148;6.950;2023-12-20T01:42:08;7.17;99.99
64858;SHT30;51335;51.148;6.950;2023-12-20T01:42:38;7.19;99.99
64858;SHT30;51335;51.148;6.950;2023-12-20T01:43:08;7.19;99.99
64858;SHT30;51335;51.148;6.950;2023-12-20T01:43:39;7.19;99.99
64858;SHT30;51335;51.148;6.950;2023-12-20T01:44:09;7.17;99.99
64858;SHT30;51335;51.148;6.950;2023-12-20T01:44:39;7.19;99.99
64858;SHT30;51335;51.148;6.950;2023-12-20T01:45:09;7.16;99.99
64858;SHT30;51335;51.148;6.950;2023-12-20T01:45:40;7.15;99.99
64858;SHT30;51335;51.148;6.950;2023-12-20T01:46:10;7.13;99.99
64858;SHT30;51335;51.148;6.950;2023-12-20T01:46:41;7.16;99.99
64858;SHT30;51335;51.148;6.950;2023-12-20T01:47:12;7.17;99.99
64858;SHT30;51335;51.148;6.950;2023-12-20T01:47:42;7.19;99.99
64858;SHT30;51335;51.148;6.950;2023-12-20T01:48:16;7.17;99.99
64858;SHT30;51335;51.148;6.950;2023-12-20T01:48:48;7.16;99.99
64858;SHT30;51335;51.148;6.950;2023-12-20T01:49:18;7.16;99.99
64858;SHT30;51335;51.148;6.950;2023-12-20T01:49:49;7.15;99.99
64858;SHT30;51335;51.148;6.950;2023-12-20T01:50:20;7.13;99.99
64858;SHT30;51335;51.148;6.950;2023-12-20T01:50:51;7.20;99.99
64858;SHT30;51335;51.148;6.950;2023-12-20T01:51:22;7.23;99.99
64858;SHT30;51335;51.148;6.950;2023-12-20T01:51:52;7.24;99.99
64858;SHT30;51335;51.148;6.950;2023-12-20T01:52:23;7.20;99.99
64858;SHT30;51335;51.148;6.950;2023-12-20T01:52:55;7.20;99.99
64858;SHT30;51335;51.148;6.950;2023-12-20T01:53:27;7.19;99.99
64858;SHT30;51335;51.148;6.950;2023-12-20T01:53:57;7.13;99.99
64858;SHT30;51335;51.148;6.950;2023-12-20T01:54:28;7.13;99.99
64858;SHT30;51335;51.148;6.950;2023-12-20T01:54:59;7.13;99.99
64858;SHT30;51335;51.148;6.950;2023-12-20T01:55:31;7.15;99.99
64858;SHT30;51335;51.148;6.950;2023-12-20T01:56:03;7.10;99.99
64858;SHT30;51335;51.148;6.950;2023-12-20T01:56:34;7.09;99.99
64858;SHT30;51335;51.148;6.950;2023-12-20T01:57:05;7.06;99.99
64858;SHT30;51335;51.148;6.950;2023-12-20T01:57:36;7.09;99.99
64858;SHT30;51335;51.148;6.950;2023-12-20T01:58:08;7.09;99.99
64858;SHT30;51335;51.148;6.950;2023-12-20T01:58:43;7.10;99.99
64858;SHT30;51335;51.148;6.950;2023-12-20T01:59:14;7.15;99.99
64858;SHT30;51335;51.148;6.950;2023-12-20T01:59:44;7.13;99.99
64858;SHT30;51335;51.148;6.950;2023-12-20T02:00:15;7.10;99.99
64858;SHT30;51335;51.148;6.950;2023-12-20T02:00:45;7.12;99.99
64858;SHT30;51335;51.148;6.950;2023-12-20T02:01:16;7.09;99.99
64858;SHT30;51335;51.148;6.950;2023-12-20T02:01:46;7.10;99.99
64858;SHT30;51335;51.148;6.950;2023-12-20T02:02:16;7.12;99.99
64858;SHT30;51335;51.148;6.950;2023-12-20T02:02:47;7.10;99.99
64858;SHT30;51335;51.148;6.950;2023-12-20T02:03:18;7.06;99.99
64858;SHT30;51335;51.148;6.950;2023-12-20T02:03:49;7.06;99.99
64858;SHT30;51335;51.148;6.950;2023-12-20T02:04:20;7.06;99.99
64858;SHT30;51335;51.148;6.950;2023-12-20T02:04:50;7.06;99.99
64858;SHT30;51335;51.148;6.950;2023-12-20T02:05:21;7.03;99.99
64858;SHT30;51335;51.148;6.950;2023-12-20T02:05:52;7.00;99.99
64858;SHT30;51335;51.148;6.950;2023-12-20T02:06:23;7.00;99.99
64858;SHT30;51335;51.148;6.950;2023-12-20T02:06:55;7.03;99.99
64858;SHT30;51335;51.148;6.950;2023-12-20T02:07:26;7.02;99.99
64858;SHT30;51335;51.148;6.950;2023-12-20T02:07:57;7.03;99.99
64858;SHT30;51335;51.148;6.950;2023-12-20T02:08:27;7.05;99.99
64858;SHT30;51335;51.148;6.950;2023-12-20T02:08:58;7.05;99.99
64858;SHT30;51335;51.148;6.950;2023-12-20T02:09:28;7.03;99.99
64858;SHT30;51335;51.148;6.950;2023-12-20T02:09:59;7.02;99.99
64858;SHT30;51335;51.148;6.950;2023-12-20T02:10:29;7.02;99.99
64858;SHT30;51335;51.148;6.950;2023-12-20T02:11:00;6.98;99.99
64858;SHT30;51335;51.148;6.950;2023-12-20T02:11:30;6.93;99.99
64858;SHT30;51335;51.148;6.950;2023-12-20T02:12:00;6.92;99.99
64858;SHT30;51335;51.148;6.950;2023-12-20T02:12:31;6.91;99.99
64858;SHT30;51335;51.148;6.950;2023-12-20T02:13:01;6.92;99.99
64858;SHT30;51335;51.148;6.950;2023-12-20T02:13:31;6.91;99.99
64858;SHT30;51335;51.148;6.950;2023-12-20T02:14:02;6.88;99.99
64858;SHT30;51335;51.148;6.950;2023-12-20T02:14:32;6.85;99.99
64858;SHT30;51335;51.148;6.950;2023-12-20T02:15:02;6.84;99.99
64858;SHT30;51335;51.148;6.950;2023-12-20T02:15:33;6.81;99.99
64858;SHT30;51335;51.148;6.950;2023-12-20T02:16:03;6.82;99.99
64858;SHT30;51335;51.148;6.950;2023-12-20T02:16:34;6.78;99.99
64858;SHT30;51335;51.148;6.950;2023-12-20T02:17:04;6.77;99.99
64858;SHT30;51335;51.148;6.950;2023-12-20T02:17:35;6.75;99.99
64858;SHT30;51335;51.148;6.950;2023-12-20T02:18:06;6.71;99.99
64858;SHT30;51335;51.148;6.950;2023-12-20T02:18:36;6.72;99.99
64858;SHT30;51335;51.148;6.950;2023-12-20T02:19:13;6.72;99.99
64858;SHT30;51335;51.148;6.950;2023-12-20T02:19:43;6.69;99.99
64858;SHT30;51335;51.148;6.950;2023-12-20T02:20:14;6.68;99.99
64858;SHT30;51335;51.148;6.950;2023-12-20T02:20:44;6.67;99.99
64858;SHT30;51335;51.148;6.950;2023-12-20T02:21:14;6.63;99.99
64858;SHT30;51335;51.148;6.950;2023-12-20T02:21:45;6.65;99.99
64858;SHT30;51335;51.148;6.950;2023-12-20T02:22:15;6.68;99.99
64858;SHT30;51335;51.148;6.950;2023-12-20T02:22:45;6.65;99.99
64858;SHT30;51335;51.148;6.950;2023-12-20T02:23:16;6.59;99.99
64858;SHT30;51335;51.148;6.950;2023-12-20T02:23:46;6.61;99.99
64858;SHT30;51335;51.148;6.950;2023-12-20T02:24:16;6.58;99.99
64858;SHT30;51335;51.148;6.950;2023-12-20T02:24:46;6.55;99.99
64858;SHT30;51335;51.148;6.950;2023-12-20T02:25:17;6.55;99.99
64858;SHT30;51335;51.148;6.950;2023-12-20T02:25:47;6.54;99.99
64858;SHT30;51335;51.148;6.950;2023-12-20T02:26:17;6.55;99.99
64858;SHT30;51335;51.148;6.950;2023-12-20T02:26:47;6.55;99.99
64858;SHT30;51335;51.148;6.950;2023-12-20T02:27:19;6.54;99.99
64858;SHT30;51335;51.148;6.950;2023-12-20T02:27:50;6.49;99.99
64858;SHT30;51335;51.148;6.950;2023-12-20T02:28:21;6.49;99.99
64858;SHT30;51335;51.148;6.950;2023-12-20T02:28:51;6.52;99.99
64858;SHT30;51335;51.148;6.950;2023-12-20T02:29:22;6.48;99.99
64858;SHT30;51335;51.148;6.950;2023-12-20T02:29:52;6.48;99.99
64858;SHT30;51335;51.148;6.950;2023-12-20T02:30:23;6.45;99.99
64858;SHT30;51335;51.148;6.950;2023-12-20T02:30:53;6.44;99.99
64858;SHT30;51335;51.148;6.950;2023-12-20T02:31:23;6.44;99.99
64858;SHT30;51335;51.148;6.950;2023-12-20T02:31:54;6.42;99.99
64858;SHT30;51335;51.148;6.950;2023-12-20T02:32:24;6.40;99.99
64858;SHT30;51335;51.148;6.950;2023-12-20T02:32:55;6.45;99.99
64858;SHT30;51335;51.148;6.950;2023-12-20T02:33:25;6.44;99.99
64858;SHT30;51335;51.148;6.950;2023-12-20T02:33:56;6.42;99.99
64858;SHT30;51335;51.148;6.950;2023-12-20T02:34:26;6.36;99.99
64858;SHT30;51335;51.148;6.950;2023-12-20T02:34:58;6.34;99.99
64858;SHT30;51335;51.148;6.950;2023-12-20T02:35:28;6.31;99.99
64858;SHT30;51335;51.148;6.950;2023-12-20T02:35:58;6.27;99.99
64858;SHT30;51335;51.148;6.950;2023-12-20T02:36:29;6.27;99.99
64858;SHT30;51335;51.148;6.950;2023-12-20T02:36:59;6.27;99.99
64858;SHT30;51335;51.148;6.950;2023-12-20T02:37:29;6.21;99.99
64858;SHT30;51335;51.148;6.950;2023-12-20T02:37:59;6.20;99.99
64858;SHT30;51335;51.148;6.950;2023-12-20T02:38:30;6.20;99.99
64858;SHT30;51335;51.148;6.950;2023-12-20T02:39:00;6.19;99.99
64858;SHT30;51335;51.148;6.950;2023-12-20T02:39:30;6.20;99.99
64858;SHT30;51335;51.148;6.950;2023-12-20T02:40:00;6.19;99.99
64858;SHT30;51335;51.148;6.950;2023-12-20T02:40:31;6.17;99.99
64858;SHT30;51335;51.148;6.950;2023-12-20T02:41:01;6.13;99.99
64858;SHT30;51335;51.148;6.950;2023-12-20T02:41:31;6.14;99.99
64858;SHT30;51335;51.148;6.950;2023-12-20T02:42:02;6.17;99.99
64858;SHT30;51335;51.148;6.950;2023-12-20T02:42:32;6.13;99.99
64858;SHT30;51335;51.148;6.950;2023-12-20T02:43:03;6.14;99.99
64858;SHT30;51335;51.148;6.950;2023-12-20T02:43:33;6.13;99.99
64858;SHT30;51335;51.148;6.950;2023-12-20T02:44:03;6.13;99.99
64858;SHT30;51335;51.148;6.950;2023-12-20T02:44:34;6.13;99.99
64858;SHT30;51335;51.148;6.950;2023-12-20T02:45:04;6.13;99.99
64858;SHT30;51335;51.148;6.950;2023-12-20T02:45:35;6.10;99.99
64858;SHT30;51335;51.148;6.950;2023-12-20T02:46:05;6.14;99.99
64858;SHT30;51335;51.148;6.950;2023-12-20T02:46:35;6.16;99.99
64858;SHT30;51335;51.148;6.950;2023-12-20T02:47:05;6.19;99.99
64858;SHT30;51335;51.148;6.950;2023-12-20T02:47:36;6.11;99.99
64858;SHT30;51335;51.148;6.950;2023-12-20T02:48:06;6.13;99.99
64858;SHT30;51335;51.148;6.950;2023-12-20T02:48:37;6.16;99.99
64858;SHT30;51335;51.148;6.950;2023-12-20T02:49:07;6.16;99.99
64858;SHT30;51335;51.148;6.950;2023-12-20T02:49:37;6.13;99.99
64858;SHT30;51335;51.148;6.950;2023-12-20T02:50:08;6.13;99.99
64858;SHT30;51335;51.148;6.950;2023-12-20T02:50:38;6.13;99.99
64858;SHT30;51335;51.148;6.950;2023-12-20T02:51:08;6.13;99.99
64858;SHT30;51335;51.148;6.950;2023-12-20T02:51:39;6.14;99.99
64858;SHT30;51335;51.148;6.950;2023-12-20T02:52:09;6.14;99.99
64858;SHT30;51335;51.148;6.950;2023-12-20T02:52:39;6.14;99.99
64858;SHT30;51335;51.148;6.950;2023-12-20T02:53:10;6.14;99.99
64858;SHT30;51335;51.148;6.950;2023-12-20T02:53:40;6.11;99.99
64858;SHT30;51335;51.148;6.950;2023-12-20T02:54:10;6.13;99.99
64858;SHT30;51335;51.148;6.950;2023-12-20T02:54:40;6.17;99.99
64858;SHT30;51335;51.148;6.950;2023-12-20T02:55:11;6.17;99.99
64858;SHT30;51335;51.148;6.950;2023-12-20T02:55:41;6.23;99.99
64858;SHT30;51335;51.148;6.950;2023-12-20T02:56:11;6.19;99.99
64858;SHT30;51335;51.148;6.950;2023-12-20T02:56:41;6.20;99.99
64858;SHT30;51335;51.148;6.950;2023-12-20T02:57:12;6.20;99.99
64858;SHT30;51335;51.148;6.950;2023-12-20T02:57:42;6.19;99.99
64858;SHT30;51335;51.148;6.950;2023-12-20T02:58:12;6.17;99.99
64858;SHT30;51335;51.148;6.950;2023-12-20T02:58:42;6.21;99.99
64858;SHT30;51335;51.148;6.950;2023-12-20T02:59:13;6.20;99.99
64858;SHT30;51335;51.148;6.950;2023-12-20T02:59:43;6.24;99.99
64858;SHT30;51335;51.148;6.950;2023-12-20T03:00:13;6.26;99.99
64858;SHT30;51335;51.148;6.950;2023-12-20T03:00:44;6.23;99.99
64858;SHT30;51335;51.148;6.950;2023-12-20T03:01:14;6.23;99.99
64858;SHT30;51335;51.148;6.950;2023-12-20T03:01:45;6.21;99.99
64858;SHT30;51335;51.148;6.950;2023-12-20T03:02:16;6.20;99.99
64858;SHT30;51335;51.148;6.950;2023-12-20T03:02:46;6.20;99.99
64858;SHT30;51335;51.148;6.950;2023-12-20T03:03:16;6.24;99.99
64858;SHT30;51335;51.148;6.950;2023-12-20T03:03:46;6.27;99.99
64858;SHT30;51335;51.148;6.950;2023-12-20T03:04:17;6.30;99.99
64858;SHT30;51335;51.148;6.950;2023-12-20T03:04:47;6.31;99.99
64858;SHT30;51335;51.148;6.950;2023-12-20T03:05:17;6.33;99.99
64858;SHT30;51335;51.148;6.950;2023-12-20T03:05:47;6.33;99.99
64858;SHT30;51335;51.148;6.950;2023-12-20T03:06:18;6.36;99.99
64858;SHT30;51335;51.148;6.950;2023-12-20T03:06:49;6.34;99.99
64858;SHT30;51335;51.148;6.950;2023-12-20T03:07:19;6.34;99.99
64858;SHT30;51335;51.148;6.950;2023-12-20T03:07:49;6.38;99.99
64858;SHT30;51335;51.148;6.950;2023-12-20T03:08:20;6.34;99.99
64858;SHT30;51335;51.148;6.950;2023-12-20T03:08:50;6.31;99.99
64858;SHT30;51335;51.148;6.950;2023-12-20T03:09:20;6.33;99.99
64858;SHT30;51335;51.148;6.950;2023-12-20T03:09:50;6.33;99.99
64858;SHT30;51335;51.148;6.950;2023-12-20T03:10:21;6.26;99.99
64858;SHT30;51335;51.148;6.950;2023-12-20T03:10:51;6.27;99.99
64858;SHT30;51335;51.148;6.950;2023-12-20T03:11:21;6.28;99.99
64858;SHT30;51335;51.148;6.950;2023-12-20T03:11:51;6.34;99.99
64858;SHT30;51335;51.148;6.950;2023-12-20T03:12:22;6.36;99.99
64858;SHT30;51335;51.148;6.950;2023-12-20T03:12:52;6.36;99.99
64858;SHT30;51335;51.148;6.950;2023-12-20T03:13:22;6.33;99.99
64858;SHT30;51335;51.148;6.950;2023-12-20T03:13:52;6.34;99.99
64858;SHT30;51335;51.148;6.950;2023-12-20T03:14:23;6.36;99.99
64858;SHT30;51335;51.148;6.950;2023-12-20T03:14:53;6.34;99.99